sensor_id;sensor_type;location;lat;lon;timestamp;P1;durP1;ratioP1;P2;durP2;ratioP2
20022;SDS011;10172;42.054;24.546;2023-12-20T00:01:37;9.85;;;6.22;;
20022;SDS011;10172;42.054;24.546;2023-12-20T00:04:03;10.65;;;6.07;;
20022;SDS011;10172;42.054;24.546;2023-12-20T00:06:29;8.05;;;5.25;;
20022;SDS011;10172;42.054;24.546;2023-12-20T00:08:54;6.22;;;4.13;;
20022;SDS011;10172;42.054;24.546;2023-12-20T00:11:20;13.23;;;8.85;;
20022;SDS011;10172;42.054;24.546;2023-12-20T00:13:45;8.48;;;5.70;;
20022;SDS011;10172;42.054;24.546;2023-12-20T00:16:10;10.63;;;5.45;;
20022;SDS011;10172;42.054;24.546;2023-12-20T00:18:36;10.27;;;5.95;;
20022;SDS011;10172;42.054;24.546;2023-12-20T00:21:01;7.53;;;5.57;;
20022;SDS011;10172;42.054;24.546;2023-12-20T00:23:27;8.18;;;5.32;;
20022;SDS011;10172;42.054;24.546;2023-12-20T00:25:52;7.18;;;4.78;;
20022;SDS011;10172;42.054;24.546;2023-12-20T00:28:17;19.80;;;9.45;;
20022;SDS011;10172;42.054;24.546;2023-12-20T00:30:43;15.02;;;7.15;;
20022;SDS011;10172;42.054;24.546;2023-12-20T00:33:09;12.07;;;7.65;;
20022;SDS011;10172;42.054;24.546;2023-12-20T00:35:34;13.35;;;8.32;;
20022;SDS011;10172;42.054;24.546;2023-12-20T00:37:59;10.57;;;6.53;;
20022;SDS011;10172;42.054;24.546;2023-12-20T00:40:25;9.02;;;5.50;;
20022;SDS011;10172;42.054;24.546;2023-12-20T00:42:50;11.70;;;8.68;;
20022;SDS011;10172;42.054;24.546;2023-12-20T00:45:15;9.93;;;7.40;;
20022;SDS011;10172;42.054;24.546;2023-12-20T00:47:41;9.52;;;6.70;;
20022;SDS011;10172;42.054;24.546;2023-12-20T00:50:07;10.20;;;7.38;;
20022;SDS011;10172;42.054;24.546;2023-12-20T00:52:32;9.95;;;6.78;;
20022;SDS011;10172;42.054;24.546;2023-12-20T00:54:58;8.55;;;5.50;;
20022;SDS011;10172;42.054;24.546;2023-12-20T00:57:23;10.63;;;6.35;;
20022;SDS011;10172;42.054;24.546;2023-12-20T00:59:49;11.50;;;7.60;;
20022;SDS011;10172;42.054;24.546;2023-12-20T01:02:14;9.10;;;6.32;;
20022;SDS011;10172;42.054;24.546;2023-12-20T01:04:39;9.63;;;6.10;;
20022;SDS011;10172;42.054;24.546;2023-12-20T01:07:05;11.35;;;6.65;;
20022;SDS011;10172;42.054;24.546;2023-12-20T01:09:30;8.98;;;5.70;;
20022;SDS011;10172;42.054;24.546;2023-12-20T01:11:56;11.10;;;7.40;;
20022;SDS011;10172;42.054;24.546;2023-12-20T01:14:21;11.18;;;7.45;;
20022;SDS011;10172;42.054;24.546;2023-12-20T01:16:46;11.43;;;7.72;;
20022;SDS011;10172;42.054;24.546;2023-12-20T01:19:12;14.10;;;9.30;;
20022;SDS011;10172;42.054;24.546;2023-12-20T01:21:39;15.52;;;10.18;;
20022;SDS011;10172;42.054;24.546;2023-12-20T01:24:04;16.50;;;11.05;;
20022;SDS011;10172;42.054;24.546;2023-12-20T01:26:30;14.13;;;9.65;;
20022;SDS011;10172;42.054;24.546;2023-12-20T01:28:55;18.73;;;12.90;;
20022;SDS011;10172;42.054;24.546;2023-12-20T01:31:20;17.55;;;10.18;;
20022;SDS011;10172;42.054;24.546;2023-12-20T01:33:46;32.40;;;13.90;;
20022;SDS011;10172;42.054;24.546;2023-12-20T01:36:11;65.57;;;20.58;;
20022;SDS011;10172;42.054;24.546;2023-12-20T01:38:37;14.18;;;8.55;;
20022;SDS011;10172;42.054;24.546;2023-12-20T01:41:03;6.40;;;4.22;;
20022;SDS011;10172;42.054;24.546;2023-12-20T01:43:29;8.18;;;3.50;;
20022;SDS011;10172;42.054;24.546;2023-12-20T01:45:55;7.88;;;4.43;;
20022;SDS011;10172;42.054;24.546;2023-12-20T01:48:22;8.60;;;4.93;;
20022;SDS011;10172;42.054;24.546;2023-12-20T01:50:49;18.13;;;10.93;;
20022;SDS011;10172;42.054;24.546;2023-12-20T01:53:14;19.00;;;13.27;;
20022;SDS011;10172;42.054;24.546;2023-12-20T01:55:41;9.13;;;5.90;;
20022;SDS011;10172;42.054;24.546;2023-12-20T01:58:07;8.68;;;5.03;;
20022;SDS011;10172;42.054;24.546;2023-12-20T02:00:34;8.88;;;5.13;;
20022;SDS011;10172;42.054;24.546;2023-12-20T02:03:01;17.52;;;10.10;;
20022;SDS011;10172;42.054;24.546;2023-12-20T02:05:27;8.45;;;3.90;;
20022;SDS011;10172;42.054;24.546;2023-12-20T02:07:54;10.77;;;7.65;;
20022;SDS011;10172;42.054;24.546;2023-12-20T02:10:19;7.53;;;4.05;;
20022;SDS011;10172;42.054;24.546;2023-12-20T02:12:45;4.00;;;2.53;;
20022;SDS011;10172;42.054;24.546;2023-12-20T02:15:10;5.35;;;3.72;;
20022;SDS011;10172;42.054;24.546;2023-12-20T02:17:36;5.68;;;3.35;;
20022;SDS011;10172;42.054;24.546;2023-12-20T02:20:03;5.95;;;3.47;;
20022;SDS011;10172;42.054;24.546;2023-12-20T02:22:30;6.45;;;4.00;;
20022;SDS011;10172;42.054;24.546;2023-12-20T02:24:56;8.20;;;4.22;;
20022;SDS011;10172;42.054;24.546;2023-12-20T02:27:21;6.30;;;3.92;;
20022;SDS011;10172;42.054;24.546;2023-12-20T02:29:48;12.25;;;8.35;;
20022;SDS011;10172;42.054;24.546;2023-12-20T02:32:14;7.05;;;4.18;;
20022;SDS011;10172;42.054;24.546;2023-12-20T02:34:40;2.92;;;2.03;;
20022;SDS011;10172;42.054;24.546;2023-12-20T02:37:06;4.15;;;2.40;;
20022;SDS011;10172;42.054;24.546;2023-12-20T02:39:31;4.22;;;2.28;;
20022;SDS011;10172;42.054;24.546;2023-12-20T02:41:56;3.80;;;2.60;;
20022;SDS011;10172;42.054;24.546;2023-12-20T02:44:22;2.67;;;1.98;;
20022;SDS011;10172;42.054;24.546;2023-12-20T02:46:47;2.25;;;1.60;;
20022;SDS011;10172;42.054;24.546;2023-12-20T02:49:12;3.30;;;1.98;;
20022;SDS011;10172;42.054;24.546;2023-12-20T02:51:38;5.22;;;3.00;;
20022;SDS011;10172;42.054;24.546;2023-12-20T02:54:03;4.90;;;3.47;;
20022;SDS011;10172;42.054;24.546;2023-12-20T02:56:29;5.78;;;4.13;;
20022;SDS011;10172;42.054;24.546;2023-12-20T02:58:54;9.25;;;6.30;;
20022;SDS011;10172;42.054;24.546;2023-12-20T03:01:20;6.50;;;4.47;;
20022;SDS011;10172;42.054;24.546;2023-12-20T03:03:45;6.47;;;3.47;;
20022;SDS011;10172;42.054;24.546;2023-12-20T03:06:10;4.85;;;2.75;;
20022;SDS011;10172;42.054;24.546;2023-12-20T03:08:36;3.28;;;1.88;;
20022;SDS011;10172;42.054;24.546;2023-12-20T03:11:02;7.45;;;3.13;;
20022;SDS011;10172;42.054;24.546;2023-12-20T03:13:27;4.93;;;3.13;;
20022;SDS011;10172;42.054;24.546;2023-12-20T03:15:52;8.65;;;5.47;;
20022;SDS011;10172;42.054;24.546;2023-12-20T03:18:18;18.17;;;7.63;;
20022;SDS011;10172;42.054;24.546;2023-12-20T03:20:43;8.68;;;4.55;;
20022;SDS011;10172;42.054;24.546;2023-12-20T03:23:09;6.70;;;4.50;;
20022;SDS011;10172;42.054;24.546;2023-12-20T03:25:34;9.13;;;5.30;;
20022;SDS011;10172;42.054;24.546;2023-12-20T03:27:59;8.35;;;4.95;;
20022;SDS011;10172;42.054;24.546;2023-12-20T03:30:25;7.70;;;3.80;;
20022;SDS011;10172;42.054;24.546;2023-12-20T03:32:50;2.78;;;2.05;;
20022;SDS011;10172;42.054;24.546;2023-12-20T03:35:16;4.55;;;3.15;;
20022;SDS011;10172;42.054;24.546;2023-12-20T03:37:41;9.68;;;4.78;;
20022;SDS011;10172;42.054;24.546;2023-12-20T03:40:07;5.93;;;3.92;;
20022;SDS011;10172;42.054;24.546;2023-12-20T03:42:32;9.48;;;4.78;;
20022;SDS011;10172;42.054;24.546;2023-12-20T03:44:58;7.80;;;5.65;;
20022;SDS011;10172;42.054;24.546;2023-12-20T03:47:23;6.47;;;4.10;;
20022;SDS011;10172;42.054;24.546;2023-12-20T03:49:48;5.97;;;4.22;;
20022;SDS011;10172;42.054;24.546;2023-12-20T03:52:14;8.80;;;5.43;;
20022;SDS011;10172;42.054;24.546;2023-12-20T03:54:39;7.40;;;3.08;;
20022;SDS011;10172;42.054;24.546;2023-12-20T03:57:06;6.90;;;3.85;;
20022;SDS011;10172;42.054;24.546;2023-12-20T03:59:36;8.40;;;4.22;;
20022;SDS011;10172;42.054;24.546;2023-12-20T04:02:02;8.18;;;4.85;;
20022;SDS011;10172;42.054;24.546;2023-12-20T04:04:27;7.68;;;5.20;;
20022;SDS011;10172;42.054;24.546;2023-12-20T04:06:53;7.57;;;4.13;;
20022;SDS011;10172;42.054;24.546;2023-12-20T04:09:18;9.48;;;5.65;;
20022;SDS011;10172;42.054;24.546;2023-12-20T04:11:43;9.07;;;5.95;;
20022;SDS011;10172;42.054;24.546;2023-12-20T04:14:09;10.80;;;6.47;;
20022;SDS011;10172;42.054;24.546;2023-12-20T04:16:35;12.77;;;6.07;;
20022;SDS011;10172;42.054;24.546;2023-12-20T04:19:00;11.13;;;7.28;;
20022;SDS011;10172;42.054;24.546;2023-12-20T04:21:26;11.43;;;7.28;;
20022;SDS011;10172;42.054;24.546;2023-12-20T04:23:51;12.73;;;6.78;;
20022;SDS011;10172;42.054;24.546;2023-12-20T04:26:16;8.70;;;5.47;;
20022;SDS011;10172;42.054;24.546;2023-12-20T04:28:42;8.88;;;5.45;;
20022;SDS011;10172;42.054;24.546;2023-12-20T04:31:07;8.52;;;3.80;;
20022;SDS011;10172;42.054;24.546;2023-12-20T04:33:33;5.03;;;3.30;;
20022;SDS011;10172;42.054;24.546;2023-12-20T04:35:58;8.60;;;5.30;;
20022;SDS011;10172;42.054;24.546;2023-12-20T04:38:25;24.10;;;12.90;;
20022;SDS011;10172;42.054;24.546;2023-12-20T04:40:50;9.98;;;6.20;;
20022;SDS011;10172;42.054;24.546;2023-12-20T04:43:15;10.98;;;7.10;;
20022;SDS011;10172;42.054;24.546;2023-12-20T04:45:41;10.60;;;6.50;;
20022;SDS011;10172;42.054;24.546;2023-12-20T04:48:06;9.93;;;4.50;;
20022;SDS011;10172;42.054;24.546;2023-12-20T04:50:31;2.95;;;1.95;;
20022;SDS011;10172;42.054;24.546;2023-12-20T04:52:58;2.25;;;1.75;;
20022;SDS011;10172;42.054;24.546;2023-12-20T04:55:23;4.45;;;2.38;;
20022;SDS011;10172;42.054;24.546;2023-12-20T04:57:49;6.25;;;3.67;;
20022;SDS011;10172;42.054;24.546;2023-12-20T05:00:14;4.18;;;2.28;;
20022;SDS011;10172;42.054;24.546;2023-12-20T05:02:40;7.25;;;3.20;;
20022;SDS011;10172;42.054;24.546;2023-12-20T05:05:06;6.60;;;3.78;;
20022;SDS011;10172;42.054;24.546;2023-12-20T05:07:31;8.13;;;4.82;;
20022;SDS011;10172;42.054;24.546;2023-12-20T05:09:57;8.93;;;4.97;;
20022;SDS011;10172;42.054;24.546;2023-12-20T05:12:23;9.70;;;5.97;;
20022;SDS011;10172;42.054;24.546;2023-12-20T05:14:48;6.13;;;3.95;;
20022;SDS011;10172;42.054;24.546;2023-12-20T05:17:14;8.20;;;5.13;;
20022;SDS011;10172;42.054;24.546;2023-12-20T05:19:39;8.68;;;6.03;;
20022;SDS011;10172;42.054;24.546;2023-12-20T05:22:05;7.53;;;4.32;;
20022;SDS011;10172;42.054;24.546;2023-12-20T05:24:30;4.55;;;2.55;;
20022;SDS011;10172;42.054;24.546;2023-12-20T05:26:55;7.00;;;3.80;;
20022;SDS011;10172;42.054;24.546;2023-12-20T05:29:21;4.93;;;3.22;;
20022;SDS011;10172;42.054;24.546;2023-12-20T05:31:46;5.65;;;3.08;;
20022;SDS011;10172;42.054;24.546;2023-12-20T05:34:12;7.95;;;5.00;;
20022;SDS011;10172;42.054;24.546;2023-12-20T05:36:37;4.30;;;2.55;;
20022;SDS011;10172;42.054;24.546;2023-12-20T05:39:04;3.08;;;2.00;;
20022;SDS011;10172;42.054;24.546;2023-12-20T05:41:30;2.78;;;1.90;;
20022;SDS011;10172;42.054;24.546;2023-12-20T05:43:55;5.18;;;2.90;;
20022;SDS011;10172;42.054;24.546;2023-12-20T05:46:23;9.52;;;5.22;;
20022;SDS011;10172;42.054;24.546;2023-12-20T05:48:48;7.55;;;5.10;;
20022;SDS011;10172;42.054;24.546;2023-12-20T05:51:14;5.28;;;3.13;;
20022;SDS011;10172;42.054;24.546;2023-12-20T05:53:39;4.80;;;2.70;;
20022;SDS011;10172;42.054;24.546;2023-12-20T05:56:05;5.10;;;2.45;;
20022;SDS011;10172;42.054;24.546;2023-12-20T05:58:31;3.85;;;2.42;;
20022;SDS011;10172;42.054;24.546;2023-12-20T06:00:57;27.40;;;15.07;;
20022;SDS011;10172;42.054;24.546;2023-12-20T06:03:23;9.05;;;5.18;;
20022;SDS011;10172;42.054;24.546;2023-12-20T06:05:48;8.32;;;5.03;;
20022;SDS011;10172;42.054;24.546;2023-12-20T06:08:13;15.85;;;12.45;;
20022;SDS011;10172;42.054;24.546;2023-12-20T06:10:39;4.55;;;3.55;;
20022;SDS011;10172;42.054;24.546;2023-12-20T06:13:05;4.03;;;1.80;;
20022;SDS011;10172;42.054;24.546;2023-12-20T06:15:31;2.45;;;1.65;;
20022;SDS011;10172;42.054;24.546;2023-12-20T06:17:57;2.92;;;2.30;;
20022;SDS011;10172;42.054;24.546;2023-12-20T06:20:22;5.15;;;3.03;;
20022;SDS011;10172;42.054;24.546;2023-12-20T06:22:48;4.65;;;2.95;;
20022;SDS011;10172;42.054;24.546;2023-12-20T06:25:13;4.28;;;2.80;;
20022;SDS011;10172;42.054;24.546;2023-12-20T06:27:39;5.13;;;2.80;;
20022;SDS011;10172;42.054;24.546;2023-12-20T06:30:06;13.32;;;6.00;;
20022;SDS011;10172;42.054;24.546;2023-12-20T06:32:32;9.75;;;4.90;;
20022;SDS011;10172;42.054;24.546;2023-12-20T06:34:59;7.82;;;4.43;;
20022;SDS011;10172;42.054;24.546;2023-12-20T06:37:24;8.90;;;5.50;;
20022;SDS011;10172;42.054;24.546;2023-12-20T06:39:50;4.88;;;3.13;;
20022;SDS011;10172;42.054;24.546;2023-12-20T06:42:15;19.25;;;17.33;;
20022;SDS011;10172;42.054;24.546;2023-12-20T06:44:40;5.78;;;3.55;;
20022;SDS011;10172;42.054;24.546;2023-12-20T06:47:06;4.57;;;2.88;;
20022;SDS011;10172;42.054;24.546;2023-12-20T06:49:32;4.82;;;3.13;;
20022;SDS011;10172;42.054;24.546;2023-12-20T06:51:57;6.10;;;3.50;;
20022;SDS011;10172;42.054;24.546;2023-12-20T06:54:22;7.60;;;4.20;;
20022;SDS011;10172;42.054;24.546;2023-12-20T06:56:48;10.38;;;5.47;;
20022;SDS011;10172;42.054;24.546;2023-12-20T06:59:13;5.65;;;3.90;;
20022;SDS011;10172;42.054;24.546;2023-12-20T07:01:39;4.53;;;3.20;;
20022;SDS011;10172;42.054;24.546;2023-12-20T07:04:04;5.53;;;3.20;;
20022;SDS011;10172;42.054;24.546;2023-12-20T07:06:29;6.13;;;2.97;;
20022;SDS011;10172;42.054;24.546;2023-12-20T07:08:55;6.00;;;3.05;;
20022;SDS011;10172;42.054;24.546;2023-12-20T07:11:20;10.35;;;7.22;;
20022;SDS011;10172;42.054;24.546;2023-12-20T07:13:46;11.57;;;5.72;;
20022;SDS011;10172;42.054;24.546;2023-12-20T07:16:11;140.68;;;29.65;;
20022;SDS011;10172;42.054;24.546;2023-12-20T07:18:37;10.48;;;6.05;;
20022;SDS011;10172;42.054;24.546;2023-12-20T07:21:02;7.93;;;5.35;;
20022;SDS011;10172;42.054;24.546;2023-12-20T07:23:28;8.82;;;5.15;;
20022;SDS011;10172;42.054;24.546;2023-12-20T07:25:54;9.65;;;5.40;;
20022;SDS011;10172;42.054;24.546;2023-12-20T07:28:19;10.13;;;6.03;;
20022;SDS011;10172;42.054;24.546;2023-12-20T07:30:45;9.48;;;6.40;;
20022;SDS011;10172;42.054;24.546;2023-12-20T07:33:11;40.63;;;13.75;;
20022;SDS011;10172;42.054;24.546;2023-12-20T07:35:37;34.03;;;11.98;;
20022;SDS011;10172;42.054;24.546;2023-12-20T07:38:03;16.77;;;7.45;;
20022;SDS011;10172;42.054;24.546;2023-12-20T07:40:28;12.35;;;7.00;;
20022;SDS011;10172;42.054;24.546;2023-12-20T07:42:54;10.10;;;5.85;;
20022;SDS011;10172;42.054;24.546;2023-12-20T07:45:19;10.00;;;6.70;;
20022;SDS011;10172;42.054;24.546;2023-12-20T07:47:44;26.33;;;13.80;;
20022;SDS011;10172;42.054;24.546;2023-12-20T07:50:10;19.35;;;11.13;;
20022;SDS011;10172;42.054;24.546;2023-12-20T07:52:35;32.70;;;17.73;;
20022;SDS011;10172;42.054;24.546;2023-12-20T07:55:01;25.55;;;16.48;;
20022;SDS011;10172;42.054;24.546;2023-12-20T07:57:28;25.95;;;14.88;;
20022;SDS011;10172;42.054;24.546;2023-12-20T07:59:54;18.90;;;13.20;;
20022;SDS011;10172;42.054;24.546;2023-12-20T08:02:20;27.05;;;14.30;;
20022;SDS011;10172;42.054;24.546;2023-12-20T08:04:45;29.27;;;12.63;;
20022;SDS011;10172;42.054;24.546;2023-12-20T08:07:11;13.20;;;7.45;;
20022;SDS011;10172;42.054;24.546;2023-12-20T08:09:36;12.10;;;7.03;;
20022;SDS011;10172;42.054;24.546;2023-12-20T08:12:01;8.88;;;6.03;;
20022;SDS011;10172;42.054;24.546;2023-12-20T08:14:27;11.52;;;6.47;;
20022;SDS011;10172;42.054;24.546;2023-12-20T08:16:53;25.25;;;11.73;;
20022;SDS011;10172;42.054;24.546;2023-12-20T08:19:18;13.93;;;7.70;;
20022;SDS011;10172;42.054;24.546;2023-12-20T08:21:43;11.75;;;7.03;;
20022;SDS011;10172;42.054;24.546;2023-12-20T08:24:09;9.02;;;6.18;;
20022;SDS011;10172;42.054;24.546;2023-12-20T08:26:34;10.82;;;5.03;;
20022;SDS011;10172;42.054;24.546;2023-12-20T08:29:00;7.88;;;5.07;;
20022;SDS011;10172;42.054;24.546;2023-12-20T08:31:25;11.95;;;6.82;;
20022;SDS011;10172;42.054;24.546;2023-12-20T08:33:51;10.48;;;6.13;;
20022;SDS011;10172;42.054;24.546;2023-12-20T08:36:18;8.63;;;6.20;;
20022;SDS011;10172;42.054;24.546;2023-12-20T08:38:46;10.07;;;6.72;;
20022;SDS011;10172;42.054;24.546;2023-12-20T08:41:11;10.07;;;6.15;;
20022;SDS011;10172;42.054;24.546;2023-12-20T08:43:37;9.65;;;6.10;;
20022;SDS011;10172;42.054;24.546;2023-12-20T08:46:05;10.00;;;5.28;;
20022;SDS011;10172;42.054;24.546;2023-12-20T08:48:30;18.05;;;11.25;;
20022;SDS011;10172;42.054;24.546;2023-12-20T08:50:56;29.50;;;16.52;;
20022;SDS011;10172;42.054;24.546;2023-12-20T08:53:21;24.98;;;16.05;;
20022;SDS011;10172;42.054;24.546;2023-12-20T08:55:47;22.20;;;12.85;;
20022;SDS011;10172;42.054;24.546;2023-12-20T08:58:13;17.48;;;11.82;;
20022;SDS011;10172;42.054;24.546;2023-12-20T09:00:39;16.48;;;11.75;;
20022;SDS011;10172;42.054;24.546;2023-12-20T09:03:04;11.63;;;7.47;;
20022;SDS011;10172;42.054;24.546;2023-12-20T09:05:30;17.05;;;9.77;;
20022;SDS011;10172;42.054;24.546;2023-12-20T09:07:56;28.33;;;20.17;;
20022;SDS011;10172;42.054;24.546;2023-12-20T09:10:21;18.35;;;13.18;;
20022;SDS011;10172;42.054;24.546;2023-12-20T09:12:49;15.07;;;11.05;;
20022;SDS011;10172;42.054;24.546;2023-12-20T09:15:16;10.55;;;7.78;;
20022;SDS011;10172;42.054;24.546;2023-12-20T09:17:41;27.25;;;17.17;;
20022;SDS011;10172;42.054;24.546;2023-12-20T09:20:07;25.75;;;17.88;;
20022;SDS011;10172;42.054;24.546;2023-12-20T09:22:33;21.55;;;14.95;;
20022;SDS011;10172;42.054;24.546;2023-12-20T09:24:59;25.83;;;17.52;;
20022;SDS011;10172;42.054;24.546;2023-12-20T09:27:25;24.70;;;15.35;;
20022;SDS011;10172;42.054;24.546;2023-12-20T09:29:50;21.90;;;14.13;;
20022;SDS011;10172;42.054;24.546;2023-12-20T09:32:15;23.42;;;13.60;;
20022;SDS011;10172;42.054;24.546;2023-12-20T09:34:41;21.40;;;13.13;;
20022;SDS011;10172;42.054;24.546;2023-12-20T09:37:07;16.45;;;10.27;;
20022;SDS011;10172;42.054;24.546;2023-12-20T09:39:32;13.38;;;8.48;;
20022;SDS011;10172;42.054;24.546;2023-12-20T09:42:02;13.27;;;8.45;;
20022;SDS011;10172;42.054;24.546;2023-12-20T09:44:29;20.05;;;13.98;;
20022;SDS011;10172;42.054;24.546;2023-12-20T09:46:55;27.38;;;19.73;;
20022;SDS011;10172;42.054;24.546;2023-12-20T09:49:21;19.35;;;13.23;;
20022;SDS011;10172;42.054;24.546;2023-12-20T09:51:48;19.45;;;11.73;;
20022;SDS011;10172;42.054;24.546;2023-12-20T09:54:19;13.93;;;8.82;;
20022;SDS011;10172;42.054;24.546;2023-12-20T09:56:46;11.30;;;7.28;;
20022;SDS011;10172;42.054;24.546;2023-12-20T09:59:11;10.50;;;6.88;;
20022;SDS011;10172;42.054;24.546;2023-12-20T10:01:38;8.88;;;6.63;;
20022;SDS011;10172;42.054;24.546;2023-12-20T10:04:05;9.98;;;6.93;;
20022;SDS011;10172;42.054;24.546;2023-12-20T10:06:37;10.95;;;7.25;;
20022;SDS011;10172;42.054;24.546;2023-12-20T10:09:04;9.82;;;6.95;;
20022;SDS011;10172;42.054;24.546;2023-12-20T10:11:30;13.90;;;8.60;;
20022;SDS011;10172;42.054;24.546;2023-12-20T10:13:59;15.32;;;10.05;;
20022;SDS011;10172;42.054;24.546;2023-12-20T10:16:26;21.80;;;11.85;;
20022;SDS011;10172;42.054;24.546;2023-12-20T10:18:55;17.85;;;10.95;;
20022;SDS011;10172;42.054;24.546;2023-12-20T10:21:24;16.55;;;10.98;;
20022;SDS011;10172;42.054;24.546;2023-12-20T10:23:57;17.02;;;11.18;;
20022;SDS011;10172;42.054;24.546;2023-12-20T10:26:23;19.27;;;12.48;;
20022;SDS011;10172;42.054;24.546;2023-12-20T10:28:56;17.73;;;11.57;;
20022;SDS011;10172;42.054;24.546;2023-12-20T10:31:28;15.98;;;10.88;;
20022;SDS011;10172;42.054;24.546;2023-12-20T10:33:58;15.38;;;10.73;;
20022;SDS011;10172;42.054;24.546;2023-12-20T10:36:25;16.40;;;11.57;;
20022;SDS011;10172;42.054;24.546;2023-12-20T10:38:55;17.35;;;11.45;;
20022;SDS011;10172;42.054;24.546;2023-12-20T10:41:26;13.52;;;9.50;;
20022;SDS011;10172;42.054;24.546;2023-12-20T10:43:59;11.48;;;8.90;;
20022;SDS011;10172;42.054;24.546;2023-12-20T10:46:26;11.32;;;8.70;;
20022;SDS011;10172;42.054;24.546;2023-12-20T10:48:54;12.95;;;9.85;;
20022;SDS011;10172;42.054;24.546;2023-12-20T10:51:20;18.98;;;13.15;;
20022;SDS011;10172;42.054;24.546;2023-12-20T10:53:49;21.40;;;14.70;;
20022;SDS011;10172;42.054;24.546;2023-12-20T10:56:19;24.63;;;15.55;;
20022;SDS011;10172;42.054;24.546;2023-12-20T10:58:46;26.52;;;16.85;;
20022;SDS011;10172;42.054;24.546;2023-12-20T11:01:16;30.42;;;21.42;;
20022;SDS011;10172;42.054;24.546;2023-12-20T11:03:53;22.35;;;15.73;;
20022;SDS011;10172;42.054;24.546;2023-12-20T11:09:38;22.10;;;14.20;;
20022;SDS011;10172;42.054;24.546;2023-12-20T11:14:41;21.88;;;13.68;;
20022;SDS011;10172;42.054;24.546;2023-12-20T11:17:15;26.63;;;14.80;;
20022;SDS011;10172;42.054;24.546;2023-12-20T11:22:29;47.70;;;20.70;;
20022;SDS011;10172;42.054;24.546;2023-12-20T11:25:05;25.38;;;14.20;;
20022;SDS011;10172;42.054;24.546;2023-12-20T11:27:33;22.27;;;13.52;;
20022;SDS011;10172;42.054;24.546;2023-12-20T11:29:59;47.92;;;19.83;;
20022;SDS011;10172;42.054;24.546;2023-12-20T11:32:27;29.02;;;14.95;;
20022;SDS011;10172;42.054;24.546;2023-12-20T11:34:56;38.78;;;16.63;;
20022;SDS011;10172;42.054;24.546;2023-12-20T11:37:28;28.42;;;14.73;;
20022;SDS011;10172;42.054;24.546;2023-12-20T11:39:55;15.68;;;10.30;;
20022;SDS011;10172;42.054;24.546;2023-12-20T11:42:25;18.45;;;10.82;;
20022;SDS011;10172;42.054;24.546;2023-12-20T11:44:50;16.77;;;10.23;;
20022;SDS011;10172;42.054;24.546;2023-12-20T11:47:15;13.98;;;9.05;;
20022;SDS011;10172;42.054;24.546;2023-12-20T11:49:44;15.82;;;10.32;;
20022;SDS011;10172;42.054;24.546;2023-12-20T11:52:12;16.15;;;11.20;;
20022;SDS011;10172;42.054;24.546;2023-12-20T11:54:38;18.08;;;11.88;;
20022;SDS011;10172;42.054;24.546;2023-12-20T11:57:03;20.08;;;13.43;;
20022;SDS011;10172;42.054;24.546;2023-12-20T11:59:29;21.90;;;14.90;;
20022;SDS011;10172;42.054;24.546;2023-12-20T12:01:56;29.90;;;19.50;;
20022;SDS011;10172;42.054;24.546;2023-12-20T12:04:25;33.47;;;21.25;;
20022;SDS011;10172;42.054;24.546;2023-12-20T12:06:51;33.45;;;22.75;;
20022;SDS011;10172;42.054;24.546;2023-12-20T12:09:16;32.10;;;21.65;;
20022;SDS011;10172;42.054;24.546;2023-12-20T12:11:42;25.83;;;19.38;;
20022;SDS011;10172;42.054;24.546;2023-12-20T12:14:08;25.55;;;17.83;;
20022;SDS011;10172;42.054;24.546;2023-12-20T12:16:33;26.80;;;17.73;;
20022;SDS011;10172;42.054;24.546;2023-12-20T12:18:59;29.73;;;19.90;;
20022;SDS011;10172;42.054;24.546;2023-12-20T12:21:25;30.92;;;20.92;;
20022;SDS011;10172;42.054;24.546;2023-12-20T12:23:51;29.83;;;20.98;;
20022;SDS011;10172;42.054;24.546;2023-12-20T12:26:16;28.00;;;19.63;;
20022;SDS011;10172;42.054;24.546;2023-12-20T12:28:42;20.98;;;15.82;;
20022;SDS011;10172;42.054;24.546;2023-12-20T12:31:08;22.30;;;14.93;;
20022;SDS011;10172;42.054;24.546;2023-12-20T12:33:40;18.85;;;12.93;;
20022;SDS011;10172;42.054;24.546;2023-12-20T12:36:06;17.42;;;13.05;;
20022;SDS011;10172;42.054;24.546;2023-12-20T12:38:33;18.40;;;12.48;;
20022;SDS011;10172;42.054;24.546;2023-12-20T12:40:59;17.92;;;13.57;;
20022;SDS011;10172;42.054;24.546;2023-12-20T12:43:25;21.52;;;14.93;;
20022;SDS011;10172;42.054;24.546;2023-12-20T12:45:51;17.35;;;13.05;;
20022;SDS011;10172;42.054;24.546;2023-12-20T12:48:16;18.50;;;13.23;;
20022;SDS011;10172;42.054;24.546;2023-12-20T12:50:41;22.63;;;13.88;;
20022;SDS011;10172;42.054;24.546;2023-12-20T12:53:07;22.92;;;15.32;;
20022;SDS011;10172;42.054;24.546;2023-12-20T12:55:32;25.13;;;16.48;;
20022;SDS011;10172;42.054;24.546;2023-12-20T12:57:58;26.27;;;17.13;;
20022;SDS011;10172;42.054;24.546;2023-12-20T13:00:24;27.33;;;18.55;;
20022;SDS011;10172;42.054;24.546;2023-12-20T13:02:51;30.90;;;21.05;;
20022;SDS011;10172;42.054;24.546;2023-12-20T13:05:16;31.88;;;20.85;;
20022;SDS011;10172;42.054;24.546;2023-12-20T13:07:42;32.30;;;20.77;;
20022;SDS011;10172;42.054;24.546;2023-12-20T13:10:10;28.50;;;20.42;;
20022;SDS011;10172;42.054;24.546;2023-12-20T13:12:35;30.27;;;20.60;;
20022;SDS011;10172;42.054;24.546;2023-12-20T13:15:01;31.67;;;21.88;;
20022;SDS011;10172;42.054;24.546;2023-12-20T13:17:28;30.35;;;20.60;;
20022;SDS011;10172;42.054;24.546;2023-12-20T13:19:57;30.23;;;19.38;;
20022;SDS011;10172;42.054;24.546;2023-12-20T13:22:23;32.65;;;20.98;;
20022;SDS011;10172;42.054;24.546;2023-12-20T13:24:48;29.60;;;19.00;;
20022;SDS011;10172;42.054;24.546;2023-12-20T13:27:14;25.90;;;16.95;;
20022;SDS011;10172;42.054;24.546;2023-12-20T13:29:39;22.58;;;14.63;;
20022;SDS011;10172;42.054;24.546;2023-12-20T13:32:05;25.70;;;16.08;;
20022;SDS011;10172;42.054;24.546;2023-12-20T13:34:30;22.13;;;13.55;;
20022;SDS011;10172;42.054;24.546;2023-12-20T13:36:56;21.58;;;13.93;;
20022;SDS011;10172;42.054;24.546;2023-12-20T13:39:21;75.13;;;49.88;;
20022;SDS011;10172;42.054;24.546;2023-12-20T13:41:47;41.40;;;24.67;;
20022;SDS011;10172;42.054;24.546;2023-12-20T13:44:12;56.67;;;39.90;;
20022;SDS011;10172;42.054;24.546;2023-12-20T13:46:38;39.35;;;27.88;;
20022;SDS011;10172;42.054;24.546;2023-12-20T13:49:04;32.75;;;22.65;;
20022;SDS011;10172;42.054;24.546;2023-12-20T13:51:30;36.22;;;23.17;;
20022;SDS011;10172;42.054;24.546;2023-12-20T13:53:55;31.42;;;24.63;;
20022;SDS011;10172;42.054;24.546;2023-12-20T13:56:21;56.92;;;42.17;;
20022;SDS011;10172;42.054;24.546;2023-12-20T13:58:48;35.13;;;24.15;;
20022;SDS011;10172;42.054;24.546;2023-12-20T14:01:13;30.17;;;19.85;;
20022;SDS011;10172;42.054;24.546;2023-12-20T14:03:39;25.45;;;17.27;;
20022;SDS011;10172;42.054;24.546;2023-12-20T14:06:04;23.23;;;16.85;;
20022;SDS011;10172;42.054;24.546;2023-12-20T14:08:30;20.65;;;13.93;;
20022;SDS011;10172;42.054;24.546;2023-12-20T14:10:55;23.63;;;20.77;;
20022;SDS011;10172;42.054;24.546;2023-12-20T14:13:20;17.50;;;12.48;;
20022;SDS011;10172;42.054;24.546;2023-12-20T14:15:46;22.88;;;16.42;;
20022;SDS011;10172;42.054;24.546;2023-12-20T14:18:12;58.38;;;39.50;;
20022;SDS011;10172;42.054;24.546;2023-12-20T14:20:39;203.35;;;85.35;;
20022;SDS011;10172;42.054;24.546;2023-12-20T14:23:08;47.35;;;25.42;;